Time,TemperatureF,DewpointF,PressureIn,WindDirection,WindDirectionDegrees,WindSpeedMPH,WindSpeedGustMPH,Humidity,HourlyPrecipIn,Conditions,Clouds,dailyrainin,SoftwareType,DateUTC
2013-03-19 00:14:00,54.3,51.7,29.66,NE,45,0.0,-999.0,91,-99.99,,,0.05,Acu-Link.com,2013-03-19 04:14:00,
2013-03-19 00:29:00,53.8,51.2,29.66,WNW,292,0.0,-999.0,91,-99.99,,,0.08,Acu-Link.com,2013-03-19 04:29:00,
2013-03-19 00:44:00,53.2,50.6,29.64,ENE,67,0.0,-999.0,91,-99.99,,,0.08,Acu-Link.com,2013-03-19 04:44:00,
2013-03-19 00:59:00,53.2,50.6,29.65,NE,45,0.0,-999.0,91,-99.99,,,0.10,Acu-Link.com,2013-03-19 04:59:00,
2013-03-19 01:14:00,52.9,50.6,29.64,East,90,0.0,-999.0,92,-99.99,,,0.14,Acu-Link.com,2013-03-19 05:14:00,
2013-03-19 01:29:00,53.1,51.1,29.63,SW,225,0.0,-999.0,93,-99.99,,,0.16,Acu-Link.com,2013-03-19 05:29:00,
2013-03-19 01:45:00,53.2,51.2,29.60,SSW,202,0.0,-999.0,93,-99.99,,,0.17,Acu-Link.com,2013-03-19 05:45:00,
2013-03-19 02:00:00,53.1,51.1,29.53,ENE,67,0.0,-999.0,93,-99.99,,,0.18,Acu-Link.com,2013-03-19 06:00:00,
2013-03-19 02:15:00,53.4,51.7,29.56,WSW,247,0.0,-999.0,94,-99.99,,,0.18,Acu-Link.com,2013-03-19 06:15:00,
2013-03-19 02:30:00,53.6,51.9,29.59,NNE,22,0.0,-999.0,94,-99.99,,,0.18,Acu-Link.com,2013-03-19 06:30:00,
2013-03-19 02:45:00,53.6,51.9,29.60,NW,315,0.0,-999.0,94,-99.99,,,0.18,Acu-Link.com,2013-03-19 06:45:00,
2013-03-19 03:00:00,53.4,51.7,29.60,SW,225,0.0,-999.0,94,-99.99,,,0.18,Acu-Link.com,2013-03-19 07:00:00,
2013-03-19 03:15:00,53.4,51.7,29.59,SW,225,0.0,-999.0,94,-99.99,,,0.18,Acu-Link.com,2013-03-19 07:15:00,
2013-03-19 03:30:00,53.6,51.9,29.61,West,270,2.2,-999.0,94,-99.99,,,0.18,Acu-Link.com,2013-03-19 07:30:00,
2013-03-19 03:45:00,53.6,51.9,29.60,West,270,0.0,-999.0,94,-99.99,,,0.18,Acu-Link.com,2013-03-19 07:45:00,
2013-03-19 04:01:00,53.8,52.1,29.58,West,270,0.0,-999.0,94,-99.99,,,0.18,Acu-Link.com,2013-03-19 08:01:00,
2013-03-19 04:31:00,54.3,52.6,29.58,West,270,0.0,-999.0,94,-99.99,,,0.18,Acu-Link.com,2013-03-19 08:31:00,
2013-03-19 04:46:00,54.5,52.8,29.58,SSW,202,0.0,-999.0,94,-99.99,,,0.18,Acu-Link.com,2013-03-19 08:46:00,
2013-03-19 05:16:00,54.7,53.0,29.56,SSW,202,0.0,-999.0,94,-99.99,,,0.18,Acu-Link.com,2013-03-19 09:16:00,
2013-03-19 05:47:00,54.9,53.2,29.57,West,270,0.0,-999.0,94,-99.99,,,0.18,Acu-Link.com,2013-03-19 09:47:00,
2013-03-19 06:02:00,54.7,53.0,29.57,SSW,202,0.0,-999.0,94,-99.99,,,0.18,Acu-Link.com,2013-03-19 10:02:00,
2013-03-19 06:17:00,54.7,53.0,29.59,NNE,22,0.0,-999.0,94,-99.99,,,0.18,Acu-Link.com,2013-03-19 10:17:00,
2013-03-19 06:32:00,54.7,53.0,29.60,West,270,0.0,-999.0,94,-99.99,,,0.18,Acu-Link.com,2013-03-19 10:32:00,
2013-03-19 06:47:00,54.7,53.0,29.61,West,270,0.0,-999.0,94,-99.99,,,0.18,Acu-Link.com,2013-03-19 10:47:00,
2013-03-19 07:02:00,54.9,53.2,29.61,North,0,0.0,-999.0,94,-99.99,,,0.18,Acu-Link.com,2013-03-19 11:02:00,
2013-03-19 07:17:00,54.7,53.0,29.62,West,270,2.7,-999.0,94,-99.99,,,0.18,Acu-Link.com,2013-03-19 11:17:00,
2013-03-19 07:32:00,54.7,53.0,29.64,WNW,292,2.7,-999.0,94,-99.99,,,0.18,Acu-Link.com,2013-03-19 11:32:00,
2013-03-19 07:48:00,54.7,53.0,29.64,West,270,4.2,-999.0,94,-99.99,,,0.18,Acu-Link.com,2013-03-19 11:48:00,
2013-03-19 08:03:00,54.7,53.0,29.62,West,270,2.7,-999.0,94,-99.99,,,0.18,Acu-Link.com,2013-03-19 12:03:00,
2013-03-19 08:18:00,55.2,53.5,29.62,WSW,247,0.0,-999.0,94,-99.99,,,0.18,Acu-Link.com,2013-03-19 12:18:00,
2013-03-19 08:33:00,55.2,53.5,29.63,West,270,0.0,-999.0,94,-99.99,,,0.18,Acu-Link.com,2013-03-19 12:33:00,
2013-03-19 08:48:00,55.8,54.1,29.65,West,270,1.7,-999.0,94,-99.99,,,0.18,Acu-Link.com,2013-03-19 12:48:00,
2013-03-19 09:03:00,55.9,53.9,29.65,SSW,202,0.0,-999.0,93,-99.99,,,0.18,Acu-Link.com,2013-03-19 13:03:00,
2013-03-19 09:18:00,56.3,54.3,29.64,WNW,292,0.0,-999.0,93,-99.99,,,0.18,Acu-Link.com,2013-03-19 13:18:00,
2013-03-19 09:33:00,56.8,54.5,29.64,NNW,337,2.2,-999.0,92,-99.99,,,0.18,Acu-Link.com,2013-03-19 13:33:00,
2013-03-19 09:48:00,57.6,54.7,29.66,West,270,2.7,-999.0,90,-99.99,,,0.18,Acu-Link.com,2013-03-19 13:48:00,
2013-03-19 10:03:00,58.8,54.9,29.65,SSW,202,1.7,-999.0,87,-99.99,,,0.18,Acu-Link.com,2013-03-19 14:03:00,
2013-03-19 10:19:00,59.7,55.2,29.66,WNW,292,6.3,-999.0,85,-99.99,,,0.18,Acu-Link.com,2013-03-19 14:19:00,
2013-03-19 10:34:00,61.5,56.0,29.66,WSW,247,2.2,-999.0,82,-99.99,,,0.18,Acu-Link.com,2013-03-19 14:34:00,
2013-03-19 10:49:00,63.5,56.2,29.66,South,180,2.2,-999.0,77,-99.99,,,0.18,Acu-Link.com,2013-03-19 14:49:00,
2013-03-19 11:04:00,64.6,55.4,29.66,West,270,7.8,-999.0,72,-99.99,,,0.18,Acu-Link.com,2013-03-19 15:04:00,
2013-03-19 11:19:00,64.4,54.0,29.67,NNE,22,10.9,-999.0,69,-99.99,,,0.18,Acu-Link.com,2013-03-19 15:19:00,
2013-03-19 11:34:00,66.0,53.5,29.67,West,270,6.8,-999.0,64,-99.99,,,0.18,Acu-Link.com,2013-03-19 15:34:00,
2013-03-19 11:49:00,67.1,53.2,29.68,NE,45,10.9,-999.0,61,-99.99,,,0.18,Acu-Link.com,2013-03-19 15:49:00,
2013-03-19 12:04:00,66.0,52.6,29.68,West,270,4.2,-999.0,62,-99.99,,,0.18,Acu-Link.com,2013-03-19 16:04:00,
2013-03-19 12:20:00,69.3,53.9,29.68,NE,45,3.2,-999.0,58,-99.99,,,0.18,Acu-Link.com,2013-03-19 16:20:00,
2013-03-19 12:35:00,69.8,53.4,29.68,NNW,337,6.3,-999.0,56,-99.99,,,0.18,Acu-Link.com,2013-03-19 16:35:00,
2013-03-19 12:50:00,71.2,53.2,29.67,West,270,6.8,-999.0,53,-99.99,,,0.18,Acu-Link.com,2013-03-19 16:50:00,
2013-03-19 13:05:00,72.7,53.5,29.67,WNW,292,0.0,-999.0,51,-99.99,,,0.18,Acu-Link.com,2013-03-19 17:05:00,
2013-03-19 13:20:00,73.2,53.4,29.66,West,270,4.7,-999.0,50,-99.99,,,0.18,Acu-Link.com,2013-03-19 17:20:00,
2013-03-19 13:35:00,74.1,53.1,29.66,NNW,337,3.7,-999.0,48,-99.99,,,0.18,Acu-Link.com,2013-03-19 17:35:00,
2013-03-19 13:50:00,74.8,53.2,29.65,SW,225,7.3,-999.0,47,-99.99,,,0.18,Acu-Link.com,2013-03-19 17:50:00,
2013-03-19 14:05:00,76.3,54.0,29.64,NNW,337,9.4,-999.0,46,-99.99,,,0.18,Acu-Link.com,2013-03-19 18:05:00,
2013-03-19 14:20:00,77.9,54.2,29.64,North,0,7.3,-999.0,44,-99.99,,,0.18,Acu-Link.com,2013-03-19 18:20:00,
2013-03-19 14:35:00,77.2,53.6,29.64,NNE,22,5.8,-999.0,44,-99.99,,,0.18,Acu-Link.com,2013-03-19 18:35:00,
2013-03-19 15:21:00,79.3,52.2,29.60,SW,225,4.2,-999.0,39,-99.99,,,0.18,Acu-Link.com,2013-03-19 19:21:00,
2013-03-19 15:51:00,79.9,48.2,29.60,SW,225,3.2,-999.0,33,-99.99,,,0.18,Acu-Link.com,2013-03-19 19:51:00,
2013-03-19 16:06:00,81.1,48.4,29.60,West,270,7.3,-999.0,32,-99.99,,,0.18,Acu-Link.com,2013-03-19 20:06:00,
2013-03-19 16:36:00,80.6,46.3,29.60,NNW,337,3.2,-999.0,30,-99.99,,,0.18,Acu-Link.com,2013-03-19 20:36:00,
2013-03-19 16:51:00,80.2,43.2,29.61,North,0,3.2,-999.0,27,-99.99,,,0.18,Acu-Link.com,2013-03-19 20:51:00,
2013-03-19 17:07:00,79.2,41.3,29.61,NE,45,5.8,-999.0,26,-99.99,,,0.18,Acu-Link.com,2013-03-19 21:07:00,
2013-03-19 17:22:00,79.7,40.7,29.60,NE,45,0.0,-999.0,25,-99.99,,,0.18,Acu-Link.com,2013-03-19 21:22:00,
2013-03-19 17:37:00,81.1,38.6,29.60,WNW,292,3.7,-999.0,22,-99.99,,,0.18,Acu-Link.com,2013-03-19 21:37:00,
2013-03-19 17:52:00,82.6,39.9,29.61,SW,225,6.8,-999.0,22,-99.99,,,0.18,Acu-Link.com,2013-03-19 21:52:00,
2013-03-19 18:07:00,82.9,38.9,29.61,NNW,337,4.2,-999.0,21,-99.99,,,0.18,Acu-Link.com,2013-03-19 22:07:00,
2013-03-19 18:22:00,82.2,38.4,29.61,NNE,22,2.2,-999.0,21,-99.99,,,0.18,Acu-Link.com,2013-03-19 22:22:00,
2013-03-19 18:37:00,79.3,37.1,29.62,WNW,292,4.7,-999.0,22,-99.99,,,0.18,Acu-Link.com,2013-03-19 22:37:00,
2013-03-19 18:52:00,76.6,36.0,29.63,WNW,292,4.7,-999.0,23,-99.99,,,0.18,Acu-Link.com,2013-03-19 22:52:00,
2013-03-19 19:07:00,73.8,34.7,29.63,WNW,292,1.7,-999.0,24,-99.99,,,0.18,Acu-Link.com,2013-03-19 23:07:00,
2013-03-19 19:23:00,72.0,36.2,29.63,South,180,0.0,-999.0,27,-99.99,,,0.18,Acu-Link.com,2013-03-19 23:23:00,
2013-03-19 19:38:00,69.6,35.0,29.64,NNW,337,0.0,-999.0,28,-99.99,,,0.18,Acu-Link.com,2013-03-19 23:38:00,
2013-03-19 19:53:00,67.6,35.9,29.65,WNW,292,0.0,-999.0,31,-99.99,,,0.18,Acu-Link.com,2013-03-19 23:53:00,
2013-03-19 20:08:00,65.5,37.8,29.65,West,270,0.0,-999.0,36,-99.99,,,0.18,Acu-Link.com,2013-03-20 00:08:00,
2013-03-19 20:23:00,63.5,37.4,29.66,West,270,0.0,-999.0,38,-99.99,,,0.18,Acu-Link.com,2013-03-20 00:23:00,
2013-03-19 20:38:00,61.3,36.8,29.66,West,270,0.0,-999.0,40,-99.99,,,0.18,Acu-Link.com,2013-03-20 00:38:00,
2013-03-19 20:54:00,59.4,36.9,29.67,West,270,0.0,-999.0,43,-99.99,,,0.18,Acu-Link.com,2013-03-20 00:54:00,
2013-03-19 21:09:00,57.6,37.5,29.68,West,270,0.0,-999.0,47,-99.99,,,0.18,Acu-Link.com,2013-03-20 01:09:00,
2013-03-19 21:24:00,57.2,36.6,29.68,West,270,0.0,-999.0,46,-99.99,,,0.18,Acu-Link.com,2013-03-20 01:24:00,
2013-03-19 21:39:00,57.4,33.3,29.69,West,270,0.0,-999.0,40,-99.99,,,0.18,Acu-Link.com,2013-03-20 01:39:00,
2013-03-19 21:54:00,57.2,36.6,29.69,West,270,0.0,-999.0,46,-99.99,,,0.18,Acu-Link.com,2013-03-20 01:54:00,
2013-03-19 22:09:00,55.2,35.3,29.70,West,270,0.0,-999.0,47,-99.99,,,0.18,Acu-Link.com,2013-03-20 02:09:00,
2013-03-19 22:24:00,54.0,36.3,29.71,West,270,0.0,-999.0,51,-99.99,,,0.18,Acu-Link.com,2013-03-20 02:24:00,
2013-03-19 22:39:00,53.2,36.0,29.71,West,270,0.0,-999.0,52,-99.99,,,0.18,Acu-Link.com,2013-03-20 02:39:00,
2013-03-19 22:54:00,52.7,35.6,29.72,ENE,67,0.0,-999.0,52,-99.99,,,0.18,Acu-Link.com,2013-03-20 02:54:00,
2013-03-19 23:10:00,54.7,32.6,29.73,NE,45,2.2,-999.0,43,-99.99,,,0.18,Acu-Link.com,2013-03-20 03:10:00,
2013-03-19 23:25:00,55.9,30.7,29.72,NNE,22,1.7,-999.0,38,-99.99,,,0.18,Acu-Link.com,2013-03-20 03:25:00,
2013-03-19 23:40:00,55.4,33.3,29.72,NE,45,0.0,-999.0,43,-99.99,,,0.18,Acu-Link.com,2013-03-20 03:40:00,
2013-03-19 23:55:00,54.3,31.7,29.72,NE,45,0.0,-999.0,42,-99.99,,,0.18,Acu-Link.com,2013-03-20 03:55:00,